createdAt,value
2019-05-30T00:00:16.488Z,78.63
2019-05-30T00:00:46.264Z,77.86
2019-05-30T00:01:26.715Z,77.9
2019-05-30T00:02:07.158Z,77.8
2019-05-30T00:02:47.507Z,77.28
2019-05-30T00:03:27.953Z,77.42
2019-05-30T00:04:08.372Z,77.33
2019-05-30T00:04:48.779Z,77.13
2019-05-30T00:06:09.622Z,76.84
2019-05-30T00:06:50.125Z,76.84
2019-05-30T00:07:30.466Z,76.56
2019-05-30T00:08:51.290Z,75.89
2019-05-30T00:09:31.741Z,75.7
2019-05-30T00:10:12.125Z,75.41
2019-05-30T00:10:52.527Z,75.41
2019-05-30T00:11:32.905Z,75.51
2019-05-30T00:12:13.280Z,75.41
2019-05-30T00:13:34.088Z,75.02
2019-05-30T00:14:14.505Z,74.93
2019-05-30T00:14:54.912Z,74.84
2019-05-30T00:15:35.320Z,75.22
2019-05-30T00:16:15.724Z,75.31
2019-05-30T00:16:56.751Z,75.51
2019-05-30T00:17:36.542Z,75.7
2019-05-30T00:18:16.963Z,76.08
2019-05-30T00:18:58.653Z,75.51
2019-05-30T00:19:37.809Z,75.6
2019-05-30T00:20:18.232Z,76.18
2019-05-30T00:20:58.767Z,75.98
2019-05-30T00:21:39.036Z,75.6
2019-05-30T00:23:51.599Z,75.12
2019-05-30T00:24:33.002Z,75.12
2019-05-30T00:25:13.379Z,75.7
2019-05-30T00:25:55.128Z,75.31
2019-05-30T00:26:34.228Z,75.6
2019-05-30T00:27:14.637Z,75.41
2019-05-30T00:28:35.462Z,75.79
2019-05-30T00:29:15.891Z,75.89
2019-05-30T00:29:57.166Z,75.89
2019-05-30T00:30:36.737Z,75.89
2019-05-30T00:31:17.156Z,76.27
2019-05-30T00:31:57.591Z,75.41
2019-05-30T00:32:38.005Z,75.6
2019-05-30T00:33:18.437Z,75.7
2019-05-30T00:33:59.541Z,75.6
2019-05-30T00:37:37.531Z,75.6
2019-05-30T00:38:17.925Z,76.18
2019-05-30T00:38:58.334Z,76.08
2019-05-30T00:39:38.744Z,75.89
2019-05-30T00:40:59.961Z,75.98
2019-05-30T00:41:39.897Z,76.08
2019-05-30T00:42:20.329Z,76.46
2019-05-30T00:43:01.900Z,76.65
2019-05-30T00:43:41.197Z,76.18
2019-05-30T00:44:21.603Z,76.84
2019-05-30T00:45:08.693Z,76.65
2019-05-30T00:45:42.465Z,76.56
2019-05-30T00:46:22.878Z,76.56
2019-05-30T00:47:04.424Z,76.84
2019-05-30T00:47:43.732Z,77.04
2019-05-30T00:48:24.161Z,76.94
2019-05-30T00:49:04.619Z,77.13
2019-05-30T00:49:44.991Z,76.65
2019-05-30T00:50:25.416Z,77.13
2019-05-30T00:51:06.718Z,76.94
2019-05-30T00:51:46.263Z,77.23
2019-05-30T00:52:26.646Z,76.84
2019-05-30T00:53:07.103Z,76.84
2019-05-30T00:53:47.503Z,77.04
2019-05-30T00:54:27.925Z,77.51
2019-05-30T00:55:48.776Z,77.33
2019-05-30T00:56:29.207Z,77.61
2019-05-30T00:57:09.637Z,78.09
2019-05-30T00:58:30.497Z,77.9
2019-05-30T00:59:10.926Z,78.38
2019-05-30T00:59:51.351Z,78.66
2019-05-30T01:00:42.444Z,79.14
2019-05-30T01:01:12.979Z,79.24
2019-05-30T01:01:52.595Z,79.33
2019-05-30T01:02:33.044Z,79.52
2019-05-30T01:03:13.483Z,79.39
2019-05-30T01:03:53.890Z,79.58
2019-05-30T01:04:34.307Z,80.35
2019-05-30T01:05:14.736Z,80.16
2019-05-30T01:05:55.153Z,80.06
2019-05-30T01:06:35.590Z,80.16
2019-05-30T01:07:16.018Z,80.16
2019-05-30T01:07:56.693Z,80.35
2019-05-30T01:08:36.867Z,80.16
2019-05-30T01:09:17.294Z,80.16
2019-05-30T01:09:59.019Z,79.77
2019-05-30T01:10:38.126Z,80.25
2019-05-30T01:11:18.547Z,80.54
2019-05-30T01:11:59.172Z,80.54
2019-05-30T01:13:19.818Z,80.92
2019-05-30T01:14:01.049Z,81.21
2019-05-30T01:14:40.648Z,81.3
2019-05-30T01:16:01.486Z,81.49
2019-05-30T01:16:42.769Z,81.3
2019-05-30T01:17:22.242Z,81.3
2019-05-30T01:18:03.155Z,81.68
2019-05-30T01:18:43.088Z,81.88
2019-05-30T01:19:23.463Z,81.88
2019-05-30T01:20:03.869Z,81.68
2019-05-30T01:20:44.304Z,82.17
2019-05-30T01:21:24.752Z,82.07
2019-05-30T01:22:05.472Z,82.17
2019-05-30T01:22:45.578Z,82.07
2019-05-30T01:23:26.005Z,82.07
2019-05-30T01:24:07.653Z,82.54
2019-05-30T01:24:46.843Z,82.74
2019-05-30T01:25:27.279Z,82.54
2019-05-30T01:26:07.710Z,82.54
2019-05-30T01:26:48.160Z,82.83
2019-05-30T01:27:28.572Z,82.07
2019-05-30T01:28:09.007Z,82.17
2019-05-30T01:28:49.422Z,82.83
2019-05-30T01:29:29.791Z,82.07
2019-05-30T01:30:59.314Z,82.54
2019-05-30T01:31:30.993Z,82.64
2019-05-30T01:32:11.349Z,83.31
2019-05-30T01:33:32.182Z,83.22
2019-05-30T01:34:12.608Z,83.31
2019-05-30T01:34:53.016Z,83.22
2019-05-30T01:35:33.401Z,83.03
2019-05-30T01:36:13.849Z,83.22
2019-05-30T01:36:54.257Z,83.31
2019-05-30T01:38:15.023Z,83.12
2019-05-30T01:38:55.433Z,83.31
2019-05-30T01:39:35.872Z,83.31
2019-05-30T01:40:16.244Z,83.31
2019-05-30T01:40:57.669Z,83.69
2019-05-30T01:41:37.104Z,83.03
2019-05-30T01:42:17.516Z,83.4
2019-05-30T01:42:57.975Z,83.98
2019-05-30T01:43:38.366Z,83.56
2019-05-30T01:44:18.795Z,83.65
2019-05-30T01:45:00.189Z,83.65
2019-05-30T01:45:39.649Z,84.13
2019-05-30T01:46:20.058Z,83.75
2019-05-30T01:47:00.471Z,84.32
2019-05-30T01:48:21.307Z,84.55
2019-05-30T01:49:02.284Z,84.23
2019-05-30T01:49:42.140Z,84.32
2019-05-30T01:50:22.552Z,84.23
2019-05-30T01:51:02.957Z,84.52
2019-05-30T01:51:43.400Z,84.55
2019-05-30T01:52:23.821Z,84.55
2019-05-30T01:53:04.612Z,84.03
2019-05-30T01:53:44.711Z,84.23
2019-05-30T01:54:25.066Z,84.36
2019-05-30T01:55:06.457Z,84.13
2019-05-30T01:55:48.731Z,84.32
2019-05-30T01:56:26.328Z,83.84
2019-05-30T01:57:06.824Z,83.89
2019-05-30T01:57:47.200Z,83.89
2019-05-30T01:58:27.624Z,83.6
2019-05-30T01:59:08.890Z,83.89
2019-05-30T01:59:48.465Z,83.98
2019-05-30T02:00:28.897Z,84.08
2019-05-30T02:01:22.086Z,83.6
2019-05-30T02:01:49.714Z,83.79
2019-05-30T02:03:10.559Z,83.12
2019-05-30T02:03:50.992Z,83.12
2019-05-30T02:04:31.410Z,83.4
2019-05-30T02:05:52.269Z,82.54
2019-05-30T02:06:32.698Z,82.64
2019-05-30T02:07:13.099Z,82.74
2019-05-30T02:07:53.487Z,81.88
2019-05-30T02:08:33.846Z,82.83
2019-05-30T02:09:14.230Z,81.88
2019-05-30T02:10:35.026Z,82.26
2019-05-30T02:11:15.436Z,82.54
2019-05-30T02:11:55.835Z,82.83
2019-05-30T02:12:36.253Z,81.97
2019-05-30T02:13:16.671Z,82.17
2019-05-30T02:13:57.090Z,82.64
2019-05-30T02:14:37.506Z,82.64
2019-05-30T02:15:17.932Z,82.35
2019-05-30T02:15:59.542Z,82.74
2019-05-30T02:16:38.796Z,82.74
2019-05-30T02:17:19.217Z,82.83
2019-05-30T02:17:59.639Z,82.07
2019-05-30T02:18:40.068Z,81.49
2019-05-30T02:19:20.497Z,81.97
2019-05-30T02:21:48.289Z,81.02
2019-05-30T02:22:28.687Z,81.11
2019-05-30T02:23:09.862Z,81.21
2019-05-30T02:23:49.531Z,81.49
2019-05-30T02:24:29.972Z,81.21
2019-05-30T02:25:10.519Z,80.63
2019-05-30T02:25:50.809Z,81.4
2019-05-30T02:26:31.225Z,81.3
2019-05-30T02:27:11.639Z,81.49
2019-05-30T02:27:52.044Z,81.4
2019-05-30T02:28:32.475Z,81.3
2019-05-30T02:29:12.866Z,81.63
2019-05-30T02:29:53.267Z,81.68
2019-05-30T02:30:33.659Z,81.68
2019-05-30T02:31:14.063Z,82.07
2019-05-30T02:31:54.421Z,82.26
2019-05-30T02:32:34.788Z,82.07
2019-05-30T02:33:15.195Z,82.07
2019-05-30T02:33:55.603Z,82.07
2019-05-30T02:34:35.955Z,82.17
2019-05-30T02:35:16.383Z,82.17
2019-05-30T02:35:56.784Z,82.17
2019-05-30T02:36:37.186Z,82.26
2019-05-30T02:37:17.599Z,82.26
2019-05-30T02:37:57.976Z,82.07
2019-05-30T02:38:38.392Z,82.26
2019-05-30T02:39:18.770Z,82.17
2019-05-30T02:40:00.740Z,82.17
2019-05-30T02:40:39.504Z,82.26
2019-05-30T02:41:19.916Z,82.17
2019-05-30T02:42:00.916Z,82.2
2019-05-30T02:42:40.754Z,82.07
2019-05-30T02:43:21.185Z,82.11
2019-05-30T02:44:02.828Z,81.49
2019-05-30T02:45:22.492Z,81.4
2019-05-30T02:46:03.415Z,81.78
2019-05-30T02:48:15.560Z,81.73
2019-05-30T02:48:59.157Z,81.54
2019-05-30T02:49:36.420Z,81.05
2019-05-30T02:50:16.847Z,81.34
2019-05-30T02:50:57.280Z,81.34
2019-05-30T02:51:37.708Z,80.96
2019-05-30T02:52:58.575Z,81.54
2019-05-30T02:53:38.976Z,80.87
2019-05-30T02:54:19.396Z,80.96
2019-05-30T02:55:01.399Z,80.87
2019-05-30T02:55:40.245Z,81.05
2019-05-30T02:56:20.667Z,80.87
2019-05-30T02:57:01.499Z,80.38
2019-05-30T02:57:41.519Z,79.91
2019-05-30T02:58:21.940Z,79.81
2019-05-30T02:59:03.847Z,80.1
2019-05-30T02:59:42.771Z,79.72
2019-05-30T03:00:23.174Z,79.72
2019-05-30T03:01:04.389Z,79.91
2019-05-30T03:01:59.581Z,79.81
2019-05-30T03:02:24.443Z,79.81
2019-05-30T03:03:06.479Z,80.19
2019-05-30T03:03:45.283Z,80.1
2019-05-30T03:04:25.706Z,80.19
2019-05-30T03:05:06.870Z,80.29
2019-05-30T03:05:46.558Z,79.43
2019-05-30T03:06:26.995Z,79.91
2019-05-30T03:07:47.829Z,79.62
2019-05-30T03:08:28.252Z,79.43
2019-05-30T03:09:10.902Z,79.14
2019-05-30T03:10:29.526Z,79.33
2019-05-30T03:11:12.536Z,79.33
2019-05-30T03:11:50.365Z,79.05
2019-05-30T03:12:30.768Z,78.76
2019-05-30T03:13:12.761Z,78.76
2019-05-30T03:13:51.631Z,78.76
2019-05-30T03:14:32.058Z,78.76
2019-05-30T03:15:15.206Z,78.8
2019-05-30T03:15:52.904Z,78.47
2019-05-30T03:16:33.332Z,78.61
2019-05-30T03:17:14.615Z,78.61
2019-05-30T03:17:54.175Z,78.51
2019-05-30T03:18:34.596Z,78.8
2019-05-30T03:19:15.031Z,78.61
2019-05-30T03:21:14.879Z,78.03
2019-05-30T03:21:52.969Z,77.94
2019-05-30T03:22:33.398Z,77.84
2019-05-30T03:23:14.685Z,78.13
2019-05-30T03:23:54.205Z,77.94
2019-05-30T03:25:16.059Z,78.42
2019-05-30T03:25:55.464Z,78.42
2019-05-30T03:26:35.866Z,78.03
2019-05-30T03:29:05.509Z,78.22
2019-05-30T03:29:44.176Z,78.13
2019-05-30T03:30:27.822Z,77.94
2019-05-30T03:31:10.095Z,78.32
2019-05-30T03:31:45.441Z,78.22
2019-05-30T03:34:38.460Z,77.94
2019-05-30T03:35:28.151Z,78.03
2019-05-30T03:35:59.297Z,77.84
2019-05-30T03:36:39.735Z,77.94
2019-05-30T03:37:28.357Z,78.13
2019-05-30T03:38:00.578Z,78.03
2019-05-30T03:38:41.005Z,77.94
2019-05-30T03:39:21.429Z,78.13
2019-05-30T03:40:01.866Z,77.75
2019-05-30T03:40:42.294Z,78.03
2019-05-30T03:41:22.716Z,78.22
2019-05-30T03:42:04.503Z,78.7
2019-05-30T03:42:43.566Z,79.37
2019-05-30T03:43:24.009Z,79.47
2019-05-30T03:44:05.968Z,79.28
2019-05-30T03:44:44.851Z,79.28
2019-05-30T03:45:25.262Z,79.75
2019-05-30T03:46:06.145Z,80.14
2019-05-30T03:46:46.101Z,80.14
2019-05-30T03:47:26.560Z,81.48
2019-05-30T03:48:08.800Z,81.38
2019-05-30T03:48:47.340Z,81.57
2019-05-30T03:49:27.769Z,80.71
2019-05-30T03:50:09.707Z,81.73
2019-05-30T03:50:48.637Z,82.78
2019-05-30T03:51:29.028Z,81.92
2019-05-30T03:52:49.902Z,82.97
2019-05-30T03:53:30.326Z,83.73
2019-05-30T03:54:12.144Z,84.22
2019-05-30T03:54:51.109Z,84.12
2019-05-30T03:55:31.519Z,84.41
2019-05-30T03:56:13.436Z,85.36
2019-05-30T03:56:52.356Z,86.04
2019-05-30T03:57:32.779Z,86.41
2019-05-30T03:58:14.304Z,86.8
2019-05-30T03:58:53.622Z,87.47
2019-05-30T03:59:34.050Z,88.23
2019-05-30T04:00:15.987Z,87.66
2019-05-30T04:00:54.815Z,87.47
2019-05-30T04:01:35.236Z,87.47
2019-05-30T04:02:15.969Z,87.33
2019-05-30T04:03:36.421Z,87.66
2019-05-30T04:04:17.134Z,88.48
2019-05-30T04:04:57.271Z,88.48
2019-05-30T04:05:37.646Z,88.71
2019-05-30T04:06:19.257Z,88.76
2019-05-30T04:06:58.477Z,88.86
2019-05-30T04:07:38.838Z,88.76
2019-05-30T04:08:19.740Z,88.76
2019-05-30T04:08:59.682Z,89.34
2019-05-30T04:09:40.097Z,89.67
2019-05-30T04:10:20.514Z,89.43
2019-05-30T04:11:00.940Z,88.9
2019-05-30T04:11:41.371Z,88.9
2019-05-30T04:12:21.786Z,89.95
2019-05-30T04:13:02.209Z,89
2019-05-30T04:13:42.638Z,89
2019-05-30T04:14:23.028Z,89.29
2019-05-30T04:15:03.441Z,89.09
2019-05-30T04:16:24.315Z,89.48
2019-05-30T04:17:04.743Z,90.15
2019-05-30T04:17:45.146Z,90.77
2019-05-30T04:19:05.968Z,90.24
2019-05-30T04:19:47.490Z,90.39
2019-05-30T04:20:27.881Z,90.34
2019-05-30T04:21:08.952Z,90.1
2019-05-30T04:21:48.652Z,90.77
2019-05-30T04:22:29.062Z,91.2
2019-05-30T04:23:10.817Z,91.16
2019-05-30T04:23:49.958Z,91.63
2019-05-30T04:24:30.362Z,90.77
2019-05-30T04:25:12.265Z,91.58
2019-05-30T04:25:51.184Z,91.53
2019-05-30T04:26:31.598Z,91.16
2019-05-30T04:27:13.710Z,91.39
2019-05-30T05:07:43.378Z,93.07
2019-05-30T05:08:23.735Z,93.07
2019-05-30T05:09:04.157Z,92.59
2019-05-30T05:09:44.578Z,93.07
2019-05-30T05:10:24.972Z,93.16
2019-05-30T05:11:05.383Z,92.69
2019-05-30T05:11:45.812Z,92.59
2019-05-30T05:12:26.221Z,93.16
2019-05-30T05:13:47.066Z,93.07
2019-05-30T05:14:27.439Z,92.88
2019-05-30T05:15:07.804Z,92.49
2019-05-30T05:16:35.222Z,92.78
2019-05-30T05:17:08.979Z,92.3
2019-05-30T05:17:49.398Z,92.4
2019-05-30T05:18:29.796Z,92.78
2019-05-30T05:19:10.204Z,91.63
2019-05-30T05:19:50.608Z,91.92
2019-05-30T05:21:12.709Z,92.02
2019-05-30T05:21:51.773Z,91.63
2019-05-30T05:22:32.181Z,91.44
2019-05-30T05:23:13.045Z,91.11
2019-05-30T05:23:53.020Z,91.3
2019-05-30T05:24:33.416Z,90.82
2019-05-30T05:25:13.824Z,90.82
2019-05-30T05:26:00.661Z,91.01
2019-05-30T05:26:34.628Z,90.05
2019-05-30T05:27:15.507Z,89.86
2019-05-30T05:27:55.447Z,89.67
2019-05-30T05:28:35.811Z,89.76
2019-05-30T05:29:16.215Z,89.86
2019-05-30T05:29:56.623Z,89.76
2019-05-30T05:31:18.418Z,89.58
2019-05-30T05:31:57.886Z,89
2019-05-30T05:32:38.307Z,89
2019-05-30T05:33:18.706Z,88.04
2019-05-30T05:33:59.113Z,87.95
2019-05-30T05:34:39.518Z,88.23
2019-05-30T05:35:20.849Z,87.95
2019-05-30T05:36:00.349Z,88.09
2019-05-30T05:36:40.685Z,88.47
2019-05-30T05:37:21.202Z,88.23
2019-05-30T05:38:01.475Z,87.56
2019-05-30T05:38:41.866Z,88.47
2019-05-30T05:39:22.365Z,88.09
2019-05-30T05:40:02.699Z,87.95
2019-05-30T05:40:43.087Z,87.27
2019-05-30T05:41:24.306Z,87.41
2019-05-30T05:42:03.825Z,87.7
2019-05-30T05:42:44.231Z,87.13
2019-05-30T05:43:24.684Z,87.7
2019-05-30T05:44:05.067Z,87.51
2019-05-30T05:44:46.394Z,87.13
2019-05-30T05:46:07.219Z,86.74
2019-05-30T05:46:47.628Z,86.94
2019-05-30T05:47:28.776Z,87.13
2019-05-30T05:48:08.452Z,86.94
2019-05-30T05:48:48.906Z,86.84
2019-05-30T05:49:29.306Z,86.94
2019-05-30T05:50:09.727Z,86.94
2019-05-30T05:50:50.152Z,87.03
2019-05-30T05:51:30.558Z,86.27
2019-05-30T05:52:12.091Z,85.98
2019-05-30T05:52:51.331Z,85.98
2019-05-30T05:53:31.736Z,86.27
2019-05-30T05:54:12.098Z,85.74
2019-05-30T05:54:52.516Z,86.31
2019-05-30T05:55:32.923Z,85.54
2019-05-30T05:56:13.343Z,85.16
2019-05-30T05:56:53.740Z,84.97
2019-05-30T05:57:34.151Z,85.16
2019-05-30T05:58:14.535Z,85.25
2019-05-30T06:00:27.207Z,85.83
2019-05-30T06:01:07.534Z,84.88
2019-05-30T06:01:47.955Z,85.06
2019-05-30T06:02:28.378Z,85.35
2019-05-30T06:03:08.807Z,85.06
2019-05-30T06:03:49.223Z,85.74
2019-05-30T06:04:29.651Z,85.16
2019-05-30T06:05:10.072Z,84.49
2019-05-30T06:05:53.195Z,84.58
2019-05-30T06:06:31.702Z,84.49
2019-05-30T06:07:11.327Z,84.2
2019-05-30T06:07:51.782Z,84.49
2019-05-30T06:08:32.164Z,84.11
2019-05-30T06:09:12.558Z,84.58
2019-05-30T06:09:52.971Z,84.49
2019-05-30T06:10:33.384Z,84.49
2019-05-30T06:11:13.800Z,84.49
2019-05-30T06:11:54.201Z,84.3
2019-05-30T06:12:34.599Z,84.88
2019-05-30T06:13:58.134Z,84.49
2019-05-30T06:14:38.530Z,84.01
2019-05-30T06:15:18.931Z,84.3
2019-05-30T06:16:39.728Z,84.3
2019-05-30T06:17:21.136Z,85.16
2019-05-30T06:18:00.475Z,84.49
2019-05-30T06:18:40.866Z,84.78
2019-05-30T06:19:21.337Z,83.72
2019-05-30T06:20:01.679Z,83.25
2019-05-30T06:21:23.394Z,83.63
2019-05-30T06:22:02.949Z,83.72
2019-05-30T06:22:43.348Z,83.63
2019-05-30T06:23:23.848Z,83.72
2019-05-30T06:24:04.214Z,84.11
2019-05-30T06:24:44.553Z,83.92
2019-05-30T06:25:29.501Z,83.72
2019-05-30T06:26:05.357Z,83.72
2019-05-30T06:26:45.763Z,83.76
2019-05-30T06:27:26.219Z,83.86
2019-05-30T06:28:06.583Z,83.25
2019-05-30T06:28:47.001Z,83.38
2019-05-30T06:29:28.355Z,82.71
2019-05-30T06:30:07.850Z,83.48
2019-05-30T06:31:30.472Z,82.71
2019-05-30T06:32:10.819Z,82.23
2019-05-30T06:32:51.218Z,82.71
2019-05-30T06:33:31.621Z,83.19
2019-05-30T06:34:26.244Z,82.71
2019-05-30T06:34:52.398Z,83
2019-05-30T06:35:34.662Z,83
2019-05-30T06:36:15.076Z,82.23
2019-05-30T06:36:55.503Z,82.32
2019-05-30T06:37:35.923Z,81.95
2019-05-30T06:41:36.449Z,82.42
2019-05-30T06:42:16.864Z,81.56
2019-05-30T06:42:57.292Z,81.75
2019-05-30T06:43:37.689Z,81.08
2019-05-30T06:44:18.105Z,80.7
2019-05-30T06:44:58.517Z,80.7
2019-05-30T06:45:38.942Z,80.79
2019-05-30T06:46:20.091Z,80.45
2019-05-30T06:46:59.807Z,81.37
2019-05-30T06:47:40.225Z,81.31
2019-05-30T06:48:20.735Z,81.66
2019-05-30T06:49:01.100Z,81.31
2019-05-30T06:49:41.452Z,81.6
2019-05-30T06:50:22.540Z,81.6
2019-05-30T06:51:02.275Z,81.27
2019-05-30T06:51:42.682Z,81.98
2019-05-30T06:52:23.102Z,81.79
2019-05-30T06:53:03.570Z,82.46
2019-05-30T06:53:43.944Z,82.85
2019-05-30T06:54:25.877Z,82.37
2019-05-30T06:55:04.793Z,82.37
2019-05-30T06:55:45.229Z,82.46
2019-05-30T06:56:25.644Z,82.75
2019-05-30T06:57:06.063Z,83.04
2019-05-30T06:57:46.500Z,82.27
2019-05-30T06:59:07.404Z,81.51
2019-05-30T06:59:47.793Z,81.41
2019-05-30T07:00:28.202Z,81.79
2019-05-30T07:01:51.975Z,81.41
2019-05-30T07:02:30.425Z,82.46
2019-05-30T07:03:09.864Z,83.04
2019-05-30T07:03:50.386Z,82.75
2019-05-30T07:04:46.787Z,82.37
2019-05-30T07:05:11.745Z,81.89
2019-05-30T07:05:51.878Z,82.27
2019-05-30T07:06:33.342Z,82.46
2019-05-30T07:07:12.441Z,83.14
2019-05-30T07:07:52.845Z,83.71
2019-05-30T07:08:33.148Z,84.77
2019-05-30T07:09:13.493Z,84.38
2019-05-30T07:09:53.871Z,84
2019-05-30T07:10:34.298Z,84.48
2019-05-30T07:11:14.647Z,84.48
2019-05-30T07:11:55.018Z,84.28
2019-05-30T07:12:35.396Z,84.38
2019-05-30T07:13:15.830Z,83.81
2019-05-30T07:13:56.252Z,83.42
2019-05-30T07:14:36.659Z,83.71
2019-05-30T07:15:17.094Z,83.81
2019-05-30T07:16:37.891Z,83.52
2019-05-30T07:17:18.326Z,83.52
2019-05-30T07:17:58.743Z,83.47
2019-05-30T07:18:39.160Z,83.52
2019-05-30T07:19:19.574Z,83.56
2019-05-30T07:19:59.988Z,83.37
2019-05-30T07:20:40.450Z,82.21
2019-05-30T07:21:20.801Z,82.79
2019-05-30T07:22:01.205Z,83.37
2019-05-30T07:22:41.587Z,82.79
2019-05-30T07:23:22.015Z,82.6
2019-05-30T07:24:02.430Z,82.41
2019-05-30T07:24:42.868Z,82.51
2019-05-30T07:25:23.757Z,83.08
2019-05-30T07:26:03.900Z,82.7
2019-05-30T07:26:44.140Z,82.6
2019-05-30T07:27:25.565Z,81.64
2019-05-30T07:28:04.947Z,80.68
2019-05-30T07:28:45.353Z,81.64
2019-05-30T07:29:25.830Z,82.12
2019-05-30T07:30:06.181Z,82.41
2019-05-30T07:30:46.560Z,82.35
2019-05-30T07:31:28.048Z,81.74
2019-05-30T07:32:07.363Z,81.4
2019-05-30T07:32:47.752Z,80.34
2019-05-30T07:34:08.569Z,79.28
2019-05-30T07:34:48.900Z,78.52
2019-05-30T07:35:29.987Z,78.32
2019-05-30T07:36:50.163Z,77.08
2019-05-30T07:37:30.593Z,76.59
2019-05-30T07:38:11.024Z,76.59
2019-05-30T07:38:51.450Z,76.73
2019-05-30T07:39:34.843Z,76.44
2019-05-30T07:40:12.292Z,76.25
2019-05-30T07:40:52.713Z,76.34
2019-05-30T07:41:33.351Z,76.64
2019-05-30T07:42:13.600Z,75.96
2019-05-30T07:42:54.015Z,76.15
2019-05-30T07:43:35.208Z,75.67
2019-05-30T07:44:14.870Z,75.67
2019-05-30T07:44:55.306Z,74.9
2019-05-30T07:45:35.766Z,74.62
2019-05-30T07:46:16.168Z,74.04
2019-05-30T07:46:56.518Z,74.52
2019-05-30T07:47:36.908Z,74.52
2019-05-30T07:48:17.333Z,74.71
2019-05-30T07:48:57.737Z,74.52
2019-05-30T07:49:38.645Z,75.2
2019-05-30T07:50:18.540Z,75.87
2019-05-30T07:51:39.365Z,75.38
2019-05-30T07:52:19.796Z,75.63
2019-05-30T07:53:00.207Z,75.67
2019-05-30T07:54:21.036Z,76.31
2019-05-30T07:55:01.427Z,76.12
2019-05-30T07:55:41.846Z,75.96
2019-05-30T07:56:22.215Z,75.87
2019-05-30T07:57:02.650Z,76.34
2019-05-30T07:57:43.031Z,76.44
2019-05-30T07:58:23.441Z,76.73
2019-05-30T07:59:03.861Z,76.44
2019-05-30T07:59:44.277Z,76.54
2019-05-30T08:00:24.699Z,76.44
2019-05-30T08:01:05.111Z,77.01
2019-05-30T08:01:45.521Z,76.73
2019-05-30T08:02:25.947Z,76.73
2019-05-30T08:03:06.367Z,77.31
2019-05-30T08:03:46.751Z,77.5
2019-05-30T08:04:27.443Z,77.46
2019-05-30T08:05:22.696Z,78.08
2019-05-30T08:05:48.008Z,78.45
2019-05-30T08:06:29.466Z,78.03
2019-05-30T08:07:08.875Z,78.08
2019-05-30T08:07:49.299Z,79.22
2019-05-30T08:09:10.151Z,78.8
2019-05-30T08:09:50.561Z,78.65
2019-05-30T08:10:31.982Z,78.08
2019-05-30T08:11:11.400Z,78.17
2019-05-30T08:11:51.831Z,78.36
2019-05-30T08:12:32.253Z,77.59
2019-05-30T08:13:12.654Z,77.69
2019-05-30T08:13:53.046Z,78.45
2019-05-30T08:14:33.419Z,77.4
2019-05-30T08:15:13.817Z,77.4
2019-05-30T08:15:54.221Z,77.31
2019-05-30T08:16:35.454Z,76.92
2019-05-30T08:17:15.039Z,77.21
2019-05-30T08:17:55.469Z,76.44
2019-05-30T08:18:35.950Z,75.71
2019-05-30T08:19:16.316Z,76
2019-05-30T08:19:56.741Z,76.19
2019-05-30T08:20:38.022Z,75.62
2019-05-30T08:21:17.581Z,75.52
2019-05-30T08:21:57.967Z,75.42
2019-05-30T08:22:38.442Z,75.32
2019-05-30T08:23:18.808Z,76.09
2019-05-30T08:23:59.209Z,75.71
2019-05-30T08:24:39.637Z,76.29
2019-05-30T08:25:20.052Z,76.48
2019-05-30T08:26:40.862Z,76.29
2019-05-30T08:30:28.281Z,75.23
2019-05-30T08:31:08.092Z,75.13
2019-05-30T08:31:48.524Z,75.04
2019-05-30T08:32:28.955Z,75.32
2019-05-30T08:33:09.375Z,74.6
2019-05-30T08:33:49.818Z,74.3
2019-05-30T08:34:30.473Z,74.3
2019-05-30T08:35:10.647Z,74.02
2019-05-30T08:35:51.199Z,73.92
2019-05-30T08:36:32.530Z,74.4
2019-05-30T08:37:11.992Z,74.5
2019-05-30T08:37:52.399Z,74.02
2019-05-30T08:38:33.121Z,73.38
2019-05-30T08:39:13.245Z,72.23
2019-05-30T08:39:53.678Z,72.42
2019-05-30T08:40:35.307Z,72.42
2019-05-30T08:41:14.765Z,73
2019-05-30T08:41:55.180Z,72.32
2019-05-30T08:42:35.617Z,72.32
2019-05-30T08:43:16.036Z,72.13
2019-05-30T08:43:56.452Z,70.78
2019-05-30T08:44:37.961Z,70.53
2019-05-30T08:45:17.293Z,70.24
2019-05-30T08:45:57.720Z,70.43
2019-05-30T08:46:38.131Z,69.85
2019-05-30T08:47:18.542Z,68.8
2019-05-30T08:47:58.969Z,68.8
2019-05-30T08:49:19.857Z,68.93
2019-05-30T08:50:00.242Z,68.26
2019-05-30T08:50:44.147Z,67.97
2019-05-30T08:51:21.033Z,67
2019-05-30T08:52:01.432Z,66.33
2019-05-30T08:52:41.819Z,66.07
2019-05-30T08:53:22.230Z,66.17
2019-05-30T08:54:02.643Z,66.07
2019-05-30T08:54:43.020Z,65.88
2019-05-30T08:55:23.431Z,66.27
2019-05-30T08:56:03.845Z,66.55
2019-05-30T08:56:44.262Z,66.55
2019-05-30T08:57:24.682Z,66.65
2019-05-30T08:58:05.103Z,66.71
2019-05-30T08:58:45.527Z,67.49
2019-05-30T08:59:25.966Z,67.58
2019-05-30T09:00:06.295Z,67.23
2019-05-30T09:00:46.678Z,67.03
2019-05-30T09:01:27.058Z,67.13
2019-05-30T09:02:07.499Z,67.03
2019-05-30T09:02:47.897Z,67.13
2019-05-30T09:04:08.726Z,66.55
2019-05-30T09:04:49.172Z,66.46
2019-05-30T09:07:01.854Z,66.65
2019-05-30T09:07:42.878Z,65.91
2019-05-30T09:08:22.586Z,66.27
2019-05-30T09:09:03.042Z,66.3
2019-05-30T09:09:44.335Z,67.07
2019-05-30T09:14:34.574Z,65.63
2019-05-30T09:15:14.953Z,65.63
2019-05-30T09:15:55.375Z,65.72
2019-05-30T09:16:35.880Z,66.3
2019-05-30T09:17:16.267Z,65.75
2019-05-30T09:17:56.661Z,65.27
2019-05-30T09:18:38.475Z,64.69
2019-05-30T09:19:17.432Z,64.59
2019-05-30T09:19:57.837Z,64.69
2019-05-30T09:20:39.764Z,63.82
2019-05-30T09:21:59.064Z,63.34
2019-05-30T09:22:39.813Z,63.24
2019-05-30T09:23:19.851Z,63.54
2019-05-30T09:24:01.306Z,62.96
2019-05-30T09:24:41.950Z,64.02
2019-05-30T09:25:21.115Z,63.44
2019-05-30T09:26:01.562Z,63.37
2019-05-30T09:26:45.737Z,63.57
2019-05-30T09:27:22.587Z,63.47
2019-05-30T09:28:02.816Z,63.47
2019-05-30T09:29:23.655Z,62.7
2019-05-30T09:30:04.079Z,63.02
2019-05-30T09:30:44.781Z,63.12
2019-05-30T09:32:05.638Z,61.19
2019-05-30T09:32:46.948Z,60.89
2019-05-30T09:33:26.227Z,60.71
2019-05-30T09:34:06.648Z,59.67
2019-05-30T09:34:47.089Z,59.96
2019-05-30T09:35:27.518Z,59.38
2019-05-30T09:36:12.971Z,59.19
2019-05-30T09:36:49.086Z,59.09
2019-05-30T09:37:28.691Z,59.28
2019-05-30T09:38:09.057Z,59.77
2019-05-30T09:38:49.774Z,59.86
2019-05-30T09:39:29.949Z,59.09
2019-05-30T09:40:10.286Z,58.7
2019-05-30T09:40:50.693Z,59.38
2019-05-30T09:41:31.126Z,58.7
2019-05-30T09:42:11.452Z,58.7
2019-05-30T09:42:51.844Z,58.22
2019-05-30T09:43:32.240Z,59.09
2019-05-30T09:44:12.626Z,58.32
2019-05-30T09:44:53.030Z,58.32
2019-05-30T09:45:33.427Z,59.09
2019-05-30T09:46:13.845Z,58.8
2019-05-30T09:46:54.203Z,59.09
2019-05-30T09:47:34.696Z,59.09
2019-05-30T09:48:15.061Z,59.09
2019-05-30T09:49:35.908Z,59.86
2019-05-30T09:52:51.401Z,60.16
2019-05-30T09:53:31.496Z,60.13
2019-05-30T09:54:11.873Z,61.09
2019-05-30T09:54:52.614Z,60.89
2019-05-30T09:55:32.663Z,61.28
2019-05-30T09:56:13.116Z,61.38
2019-05-30T09:56:56.557Z,60.51
2019-05-30T10:00:07.949Z,61.19
2019-05-30T10:00:48.968Z,60.89
2019-05-30T10:05:52.942Z,62.15
2019-05-30T10:06:33.338Z,62.05
2019-05-30T10:07:13.752Z,61.19
2019-05-30T10:07:54.181Z,62.05
2019-05-30T10:08:34.735Z,63.6
2019-05-30T10:09:55.548Z,63.02
2019-05-30T10:10:35.950Z,62.82
2019-05-30T10:11:16.368Z,63.31
2019-05-30T10:11:56.853Z,62.82
2019-05-30T10:12:37.352Z,62.63
2019-05-30T10:13:17.711Z,62.92
2019-05-30T10:13:58.100Z,62.54
2019-05-30T10:14:38.453Z,63.21
2019-05-30T10:15:19.217Z,62.63
2019-05-30T10:15:59.649Z,62.63
2019-05-30T10:16:40.067Z,62.73
2019-05-30T10:17:20.411Z,63.79
2019-05-30T10:18:00.808Z,63.79
2019-05-30T10:18:41.191Z,63.47
2019-05-30T10:19:21.620Z,63.5
2019-05-30T10:20:02.057Z,63.5
2019-05-30T10:20:42.557Z,63.18
2019-05-30T10:21:22.865Z,63.7
2019-05-30T10:22:03.281Z,63.57
2019-05-30T10:22:44.489Z,64.43
2019-05-30T10:23:24.416Z,65.2
2019-05-30T10:24:04.786Z,64.43
2019-05-30T10:24:46.183Z,64.34
2019-05-30T10:25:25.635Z,64.53
2019-05-30T10:26:06.004Z,64.15
2019-05-30T10:26:47.189Z,65.78
2019-05-30T10:27:26.778Z,65.3
2019-05-30T10:28:07.143Z,65.59
2019-05-30T10:28:47.750Z,64.63
2019-05-30T11:08:14.982Z,61.05
2019-05-30T11:08:55.381Z,60.38
2019-05-30T11:09:35.782Z,60.67
2019-05-30T11:10:16.166Z,60.67
2019-05-30T11:10:56.815Z,60.47
2019-05-30T11:11:36.938Z,61.15